sensor_id;sensor_type;location;lat;lon;timestamp;pressure;altitude;pressure_sealevel;temperature;humidity
75089;BME280;63673;49.928;8.150;2024-03-02T00:00:07;979.04;;;4.58;100
75089;BME280;63673;49.928;8.150;2024-03-02T00:01:09;979.07;;;4.59;100
75089;BME280;63673;49.928;8.150;2024-03-02T00:02:10;979.05;;;4.58;100
75089;BME280;63673;49.928;8.150;2024-03-02T00:03:11;979.06;;;4.58;100
75089;BME280;63673;49.928;8.150;2024-03-02T00:04:13;979.1;;;4.57;100
75089;BME280;63673;49.928;8.150;2024-03-02T00:05:16;979.12;;;4.58;100
75089;BME280;63673;49.928;8.150;2024-03-02T00:06:18;979.19;;;4.57;100
75089;BME280;63673;49.928;8.150;2024-03-02T00:07:18;979.11;;;4.57;100
75089;BME280;63673;49.928;8.150;2024-03-02T00:08:22;979.08;;;4.56;100
75089;BME280;63673;49.928;8.150;2024-03-02T00:09:22;979.18;;;4.55;100
75089;BME280;63673;49.928;8.150;2024-03-02T00:10:24;979.18;;;4.54;100
75089;BME280;63673;49.928;8.150;2024-03-02T00:11:25;979.16;;;4.53;100
75089;BME280;63673;49.928;8.150;2024-03-02T00:12:27;979.14;;;4.53;100
75089;BME280;63673;49.928;8.150;2024-03-02T00:13:29;979.15;;;4.52;100
75089;BME280;63673;49.928;8.150;2024-03-02T00:14:31;979.2;;;4.51;100
75089;BME280;63673;49.928;8.150;2024-03-02T00:15:37;979.18;;;4.5;100
75089;BME280;63673;49.928;8.150;2024-03-02T00:16:34;979.16;;;4.5;100
75089;BME280;63673;49.928;8.150;2024-03-02T00:17:36;979.22;;;4.49;100
75089;BME280;63673;49.928;8.150;2024-03-02T00:18:37;979.23;;;4.48;100
75089;BME280;63673;49.928;8.150;2024-03-02T00:19:39;979.22;;;4.47;100
75089;BME280;63673;49.928;8.150;2024-03-02T00:20:41;979.15;;;4.46;100
75089;BME280;63673;49.928;8.150;2024-03-02T00:21:43;979.16;;;4.46;100
75089;BME280;63673;49.928;8.150;2024-03-02T00:22:44;979.22;;;4.45;100
75089;BME280;63673;49.928;8.150;2024-03-02T00:23:47;979.2;;;4.45;100
75089;BME280;63673;49.928;8.150;2024-03-02T00:24:48;979.24;;;4.45;100
75089;BME280;63673;49.928;8.150;2024-03-02T00:25:52;979.18;;;4.44;100
75089;BME280;63673;49.928;8.150;2024-03-02T00:26:51;979.12;;;4.44;100
75089;BME280;63673;49.928;8.150;2024-03-02T00:27:53;979.13;;;4.44;100
75089;BME280;63673;49.928;8.150;2024-03-02T00:28:55;979.13;;;4.43;100
75089;BME280;63673;49.928;8.150;2024-03-02T00:29:57;979.17;;;4.43;100
75089;BME280;63673;49.928;8.150;2024-03-02T00:30:59;979.21;;;4.44;100
75089;BME280;63673;49.928;8.150;2024-03-02T00:32:00;979.22;;;4.43;100
75089;BME280;63673;49.928;8.150;2024-03-02T00:33:02;979.2;;;4.43;100
75089;BME280;63673;49.928;8.150;2024-03-02T00:34:03;979.23;;;4.43;100
75089;BME280;63673;49.928;8.150;2024-03-02T00:35:05;979.27;;;4.42;100
75089;BME280;63673;49.928;8.150;2024-03-02T00:36:07;979.23;;;4.42;100
75089;BME280;63673;49.928;8.150;2024-03-02T00:37:09;979.21;;;4.41;100
75089;BME280;63673;49.928;8.150;2024-03-02T00:38:10;979.21;;;4.41;100
75089;BME280;63673;49.928;8.150;2024-03-02T00:39:12;979.21;;;4.41;100
75089;BME280;63673;49.928;8.150;2024-03-02T00:40:14;979.18;;;4.4;100
75089;BME280;63673;49.928;8.150;2024-03-02T00:41:17;979.21;;;4.4;100
75089;BME280;63673;49.928;8.150;2024-03-02T00:42:17;979.19;;;4.4;100
75089;BME280;63673;49.928;8.150;2024-03-02T00:43:35;979.18;;;4.4;100
75089;BME280;63673;49.928;8.150;2024-03-02T00:44:21;979.17;;;4.39;100
75089;BME280;63673;49.928;8.150;2024-03-02T00:45:23;979.16;;;4.38;100
75089;BME280;63673;49.928;8.150;2024-03-02T00:46:24;979.17;;;4.38;100
75089;BME280;63673;49.928;8.150;2024-03-02T00:47:26;979.18;;;4.37;100
75089;BME280;63673;49.928;8.150;2024-03-02T00:48:28;979.13;;;4.37;100
75089;BME280;63673;49.928;8.150;2024-03-02T00:49:30;979.17;;;4.36;100
75089;BME280;63673;49.928;8.150;2024-03-02T00:50:31;979.14;;;4.35;100
75089;BME280;63673;49.928;8.150;2024-03-02T00:51:33;979.15;;;4.35;100
75089;BME280;63673;49.928;8.150;2024-03-02T00:52:35;979.12;;;4.35;100
75089;BME280;63673;49.928;8.150;2024-03-02T00:53:37;979.06;;;4.34;100
75089;BME280;63673;49.928;8.150;2024-03-02T00:54:38;979.09;;;4.35;100
75089;BME280;63673;49.928;8.150;2024-03-02T00:55:40;979.1;;;4.35;100
75089;BME280;63673;49.928;8.150;2024-03-02T00:56:42;979.05;;;4.36;100
75089;BME280;63673;49.928;8.150;2024-03-02T00:57:43;979.05;;;4.36;100
75089;BME280;63673;49.928;8.150;2024-03-02T00:58:46;979.02;;;4.36;100
75089;BME280;63673;49.928;8.150;2024-03-02T00:59:47;979.05;;;4.37;100
75089;BME280;63673;49.928;8.150;2024-03-02T01:00:49;979.01;;;4.37;100
75089;BME280;63673;49.928;8.150;2024-03-02T01:01:51;979.06;;;4.38;100
75089;BME280;63673;49.928;8.150;2024-03-02T01:02:52;979.03;;;4.39;100
75089;BME280;63673;49.928;8.150;2024-03-02T01:03:54;979.06;;;4.39;100
75089;BME280;63673;49.928;8.150;2024-03-02T01:04:55;979.04;;;4.39;100
75089;BME280;63673;49.928;8.150;2024-03-02T01:05:57;979.03;;;4.39;100
75089;BME280;63673;49.928;8.150;2024-03-02T01:06:59;979.03;;;4.4;100
75089;BME280;63673;49.928;8.150;2024-03-02T01:08:01;979.01;;;4.4;100
75089;BME280;63673;49.928;8.150;2024-03-02T01:09:02;979.01;;;4.41;100
75089;BME280;63673;49.928;8.150;2024-03-02T01:10:04;979;;;4.4;100
75089;BME280;63673;49.928;8.150;2024-03-02T01:11:06;979.03;;;4.41;100
75089;BME280;63673;49.928;8.150;2024-03-02T01:12:08;979.03;;;4.42;100
75089;BME280;63673;49.928;8.150;2024-03-02T01:13:09;979.03;;;4.43;100
75089;BME280;63673;49.928;8.150;2024-03-02T01:14:11;979.05;;;4.43;100
75089;BME280;63673;49.928;8.150;2024-03-02T01:15:13;979.01;;;4.43;100
75089;BME280;63673;49.928;8.150;2024-03-02T01:16:15;979.03;;;4.43;100
75089;BME280;63673;49.928;8.150;2024-03-02T01:17:16;979;;;4.42;100
75089;BME280;63673;49.928;8.150;2024-03-02T01:18:18;978.98;;;4.42;100
75089;BME280;63673;49.928;8.150;2024-03-02T01:19:20;979.01;;;4.42;100
75089;BME280;63673;49.928;8.150;2024-03-02T01:20:21;979.03;;;4.42;100
75089;BME280;63673;49.928;8.150;2024-03-02T01:21:23;979.01;;;4.43;100
75089;BME280;63673;49.928;8.150;2024-03-02T01:22:25;978.97;;;4.42;100
75089;BME280;63673;49.928;8.150;2024-03-02T01:23:27;978.99;;;4.43;100
75089;BME280;63673;49.928;8.150;2024-03-02T01:24:28;978.95;;;4.43;100
75089;BME280;63673;49.928;8.150;2024-03-02T01:25:30;978.91;;;4.43;100
75089;BME280;63673;49.928;8.150;2024-03-02T01:26:32;978.98;;;4.43;100
75089;BME280;63673;49.928;8.150;2024-03-02T01:27:34;979.02;;;4.44;100
75089;BME280;63673;49.928;8.150;2024-03-02T01:28:35;978.96;;;4.45;100
75089;BME280;63673;49.928;8.150;2024-03-02T01:29:37;978.93;;;4.45;100
75089;BME280;63673;49.928;8.150;2024-03-02T01:30:39;978.97;;;4.46;100
75089;BME280;63673;49.928;8.150;2024-03-02T01:31:41;978.92;;;4.46;100
75089;BME280;63673;49.928;8.150;2024-03-02T01:32:42;978.93;;;4.47;100
75089;BME280;63673;49.928;8.150;2024-03-02T01:33:44;978.94;;;4.47;100
75089;BME280;63673;49.928;8.150;2024-03-02T01:34:46;978.93;;;4.47;100
75089;BME280;63673;49.928;8.150;2024-03-02T01:35:47;978.85;;;4.48;100
75089;BME280;63673;49.928;8.150;2024-03-02T01:36:49;978.8;;;4.48;100
75089;BME280;63673;49.928;8.150;2024-03-02T01:37:51;978.82;;;4.48;100
75089;BME280;63673;49.928;8.150;2024-03-02T01:38:53;978.84;;;4.48;100
75089;BME280;63673;49.928;8.150;2024-03-02T01:39:54;978.88;;;4.47;100
75089;BME280;63673;49.928;8.150;2024-03-02T01:40:56;978.83;;;4.48;100
75089;BME280;63673;49.928;8.150;2024-03-02T01:41:58;978.85;;;4.47;100
75089;BME280;63673;49.928;8.150;2024-03-02T01:43:00;978.83;;;4.46;100
75089;BME280;63673;49.928;8.150;2024-03-02T01:44:01;978.8;;;4.46;100
75089;BME280;63673;49.928;8.150;2024-03-02T01:45:04;978.77;;;4.45;100
75089;BME280;63673;49.928;8.150;2024-03-02T01:46:05;978.82;;;4.45;100
75089;BME280;63673;49.928;8.150;2024-03-02T01:47:07;978.77;;;4.44;100
75089;BME280;63673;49.928;8.150;2024-03-02T01:48:08;978.77;;;4.43;100
75089;BME280;63673;49.928;8.150;2024-03-02T01:49:10;978.84;;;4.43;100
75089;BME280;63673;49.928;8.150;2024-03-02T01:50:12;978.8;;;4.41;100
75089;BME280;63673;49.928;8.150;2024-03-02T01:51:13;978.84;;;4.41;100
75089;BME280;63673;49.928;8.150;2024-03-02T01:52:15;978.84;;;4.4;100
75089;BME280;63673;49.928;8.150;2024-03-02T01:53:17;978.78;;;4.4;100
75089;BME280;63673;49.928;8.150;2024-03-02T01:54:19;978.86;;;4.38;100
75089;BME280;63673;49.928;8.150;2024-03-02T01:55:20;978.84;;;4.38;100
75089;BME280;63673;49.928;8.150;2024-03-02T01:56:22;978.86;;;4.36;100
75089;BME280;63673;49.928;8.150;2024-03-02T01:57:24;978.81;;;4.35;100
75089;BME280;63673;49.928;8.150;2024-03-02T01:58:26;978.86;;;4.35;100
75089;BME280;63673;49.928;8.150;2024-03-02T01:59:27;978.85;;;4.35;100
75089;BME280;63673;49.928;8.150;2024-03-02T02:00:29;978.82;;;4.34;100
75089;BME280;63673;49.928;8.150;2024-03-02T02:01:31;978.8;;;4.34;100
75089;BME280;63673;49.928;8.150;2024-03-02T02:02:33;978.79;;;4.33;100
75089;BME280;63673;49.928;8.150;2024-03-02T02:03:34;978.77;;;4.33;100
75089;BME280;63673;49.928;8.150;2024-03-02T02:04:36;978.8;;;4.33;100
75089;BME280;63673;49.928;8.150;2024-03-02T02:05:38;978.81;;;4.33;100
75089;BME280;63673;49.928;8.150;2024-03-02T02:06:39;978.79;;;4.33;100
75089;BME280;63673;49.928;8.150;2024-03-02T02:07:41;978.79;;;4.32;100
75089;BME280;63673;49.928;8.150;2024-03-02T02:08:43;978.77;;;4.31;100
75089;BME280;63673;49.928;8.150;2024-03-02T02:09:45;978.8;;;4.32;100
75089;BME280;63673;49.928;8.150;2024-03-02T02:10:46;978.77;;;4.31;100
75089;BME280;63673;49.928;8.150;2024-03-02T02:11:48;978.76;;;4.31;100
75089;BME280;63673;49.928;8.150;2024-03-02T02:12:50;978.7;;;4.31;100
75089;BME280;63673;49.928;8.150;2024-03-02T02:13:52;978.7;;;4.31;100
75089;BME280;63673;49.928;8.150;2024-03-02T02:14:53;978.71;;;4.3;100
75089;BME280;63673;49.928;8.150;2024-03-02T02:15:55;978.72;;;4.31;100
75089;BME280;63673;49.928;8.150;2024-03-02T02:16:57;978.68;;;4.3;100
75089;BME280;63673;49.928;8.150;2024-03-02T02:17:59;978.69;;;4.3;100
75089;BME280;63673;49.928;8.150;2024-03-02T02:19:00;978.67;;;4.31;100
75089;BME280;63673;49.928;8.150;2024-03-02T02:20:02;978.63;;;4.31;100
75089;BME280;63673;49.928;8.150;2024-03-02T02:21:04;978.6;;;4.31;100
75089;BME280;63673;49.928;8.150;2024-03-02T02:22:06;978.59;;;4.31;100
75089;BME280;63673;49.928;8.150;2024-03-02T02:23:07;978.54;;;4.32;100
75089;BME280;63673;49.928;8.150;2024-03-02T02:24:09;978.56;;;4.32;100
75089;BME280;63673;49.928;8.150;2024-03-02T02:25:11;978.59;;;4.33;100
75089;BME280;63673;49.928;8.150;2024-03-02T02:26:12;978.55;;;4.34;100
75089;BME280;63673;49.928;8.150;2024-03-02T02:27:14;978.52;;;4.33;100
75089;BME280;63673;49.928;8.150;2024-03-02T02:28:16;978.53;;;4.33;100
75089;BME280;63673;49.928;8.150;2024-03-02T02:29:18;978.59;;;4.33;100
75089;BME280;63673;49.928;8.150;2024-03-02T02:30:20;978.58;;;4.33;100
75089;BME280;63673;49.928;8.150;2024-03-02T02:31:21;978.56;;;4.33;100
75089;BME280;63673;49.928;8.150;2024-03-02T02:32:23;978.58;;;4.31;100
75089;BME280;63673;49.928;8.150;2024-03-02T02:33:25;978.6;;;4.31;100
75089;BME280;63673;49.928;8.150;2024-03-02T02:34:26;978.6;;;4.3;100
75089;BME280;63673;49.928;8.150;2024-03-02T02:35:28;978.58;;;4.29;100
75089;BME280;63673;49.928;8.150;2024-03-02T02:36:30;978.51;;;4.28;100
75089;BME280;63673;49.928;8.150;2024-03-02T02:37:32;978.48;;;4.28;100
75089;BME280;63673;49.928;8.150;2024-03-02T02:38:34;978.55;;;4.27;100
75089;BME280;63673;49.928;8.150;2024-03-02T02:39:35;978.49;;;4.28;100
75089;BME280;63673;49.928;8.150;2024-03-02T02:40:37;978.54;;;4.27;100
75089;BME280;63673;49.928;8.150;2024-03-02T02:41:38;978.47;;;4.25;100
75089;BME280;63673;49.928;8.150;2024-03-02T02:42:40;978.47;;;4.25;100
75089;BME280;63673;49.928;8.150;2024-03-02T02:43:42;978.42;;;4.24;100
75089;BME280;63673;49.928;8.150;2024-03-02T02:44:44;978.42;;;4.23;100
75089;BME280;63673;49.928;8.150;2024-03-02T02:45:45;978.38;;;4.22;100
75089;BME280;63673;49.928;8.150;2024-03-02T02:46:47;978.35;;;4.21;100
75089;BME280;63673;49.928;8.150;2024-03-02T02:47:49;978.36;;;4.2;100
75089;BME280;63673;49.928;8.150;2024-03-02T02:48:51;978.33;;;4.2;100
75089;BME280;63673;49.928;8.150;2024-03-02T02:49:52;978.32;;;4.19;100
75089;BME280;63673;49.928;8.150;2024-03-02T02:50:54;978.34;;;4.18;100
75089;BME280;63673;49.928;8.150;2024-03-02T02:51:56;978.36;;;4.18;100
75089;BME280;63673;49.928;8.150;2024-03-02T02:52:58;978.28;;;4.17;100
75089;BME280;63673;49.928;8.150;2024-03-02T02:53:59;978.33;;;4.17;100
75089;BME280;63673;49.928;8.150;2024-03-02T02:55:02;978.23;;;4.17;100
75089;BME280;63673;49.928;8.150;2024-03-02T02:56:03;978.31;;;4.17;100
75089;BME280;63673;49.928;8.150;2024-03-02T02:57:04;978.26;;;4.16;100
75089;BME280;63673;49.928;8.150;2024-03-02T02:58:06;978.31;;;4.16;100
75089;BME280;63673;49.928;8.150;2024-03-02T02:59:08;978.34;;;4.16;100
75089;BME280;63673;49.928;8.150;2024-03-02T03:00:10;978.36;;;4.15;100
75089;BME280;63673;49.928;8.150;2024-03-02T03:01:11;978.38;;;4.14;100
75089;BME280;63673;49.928;8.150;2024-03-02T03:02:13;978.37;;;4.14;100
75089;BME280;63673;49.928;8.150;2024-03-02T03:03:15;978.32;;;4.14;100
75089;BME280;63673;49.928;8.150;2024-03-02T03:04:17;978.31;;;4.14;100
75089;BME280;63673;49.928;8.150;2024-03-02T03:05:18;978.29;;;4.12;100
75089;BME280;63673;49.928;8.150;2024-03-02T03:06:20;978.35;;;4.13;100
75089;BME280;63673;49.928;8.150;2024-03-02T03:07:22;978.29;;;4.11;100
75089;BME280;63673;49.928;8.150;2024-03-02T03:08:24;978.29;;;4.11;100
75089;BME280;63673;49.928;8.150;2024-03-02T03:09:25;978.27;;;4.1;100
75089;BME280;63673;49.928;8.150;2024-03-02T03:10:27;978.26;;;4.1;100
75089;BME280;63673;49.928;8.150;2024-03-02T03:11:29;978.27;;;4.1;100
75089;BME280;63673;49.928;8.150;2024-03-02T03:12:30;978.24;;;4.08;100
75089;BME280;63673;49.928;8.150;2024-03-02T03:13:33;978.28;;;4.07;100
75089;BME280;63673;49.928;8.150;2024-03-02T03:14:34;978.26;;;4.07;100
75089;BME280;63673;49.928;8.150;2024-03-02T03:15:36;978.27;;;4.06;100
75089;BME280;63673;49.928;8.150;2024-03-02T03:16:37;978.3;;;4.06;100
75089;BME280;63673;49.928;8.150;2024-03-02T03:17:39;978.31;;;4.06;100
75089;BME280;63673;49.928;8.150;2024-03-02T03:18:41;978.33;;;4.06;100
75089;BME280;63673;49.928;8.150;2024-03-02T03:19:43;978.3;;;4.06;100
75089;BME280;63673;49.928;8.150;2024-03-02T03:20:44;978.34;;;4.06;100
75089;BME280;63673;49.928;8.150;2024-03-02T03:21:46;978.3;;;4.06;100
75089;BME280;63673;49.928;8.150;2024-03-02T03:22:48;978.33;;;4.06;100
75089;BME280;63673;49.928;8.150;2024-03-02T03:23:50;978.27;;;4.06;100
75089;BME280;63673;49.928;8.150;2024-03-02T03:24:51;978.31;;;4.06;100
75089;BME280;63673;49.928;8.150;2024-03-02T03:25:53;978.31;;;4.05;100
75089;BME280;63673;49.928;8.150;2024-03-02T03:26:55;978.32;;;4.04;100
75089;BME280;63673;49.928;8.150;2024-03-02T03:27:57;978.29;;;4.04;100
75089;BME280;63673;49.928;8.150;2024-03-02T03:28:58;978.29;;;4.04;100
75089;BME280;63673;49.928;8.150;2024-03-02T03:30:00;978.3;;;4.03;100
75089;BME280;63673;49.928;8.150;2024-03-02T03:31:02;978.27;;;4.02;100
75089;BME280;63673;49.928;8.150;2024-03-02T03:32:04;978.29;;;4.02;100
75089;BME280;63673;49.928;8.150;2024-03-02T03:33:05;978.28;;;4.02;100
75089;BME280;63673;49.928;8.150;2024-03-02T03:34:07;978.31;;;4.03;100
75089;BME280;63673;49.928;8.150;2024-03-02T03:35:09;978.27;;;4.02;100
75089;BME280;63673;49.928;8.150;2024-03-02T03:36:10;978.26;;;4.02;100
75089;BME280;63673;49.928;8.150;2024-03-02T03:37:12;978.22;;;4.02;100
75089;BME280;63673;49.928;8.150;2024-03-02T03:38:14;978.25;;;4.01;100
75089;BME280;63673;49.928;8.150;2024-03-02T03:39:16;978.23;;;4.01;100
75089;BME280;63673;49.928;8.150;2024-03-02T03:40:17;978.22;;;3.99;100
75089;BME280;63673;49.928;8.150;2024-03-02T03:41:19;978.2;;;4;100
75089;BME280;63673;49.928;8.150;2024-03-02T03:42:21;978.21;;;4.01;100
75089;BME280;63673;49.928;8.150;2024-03-02T03:43:22;978.16;;;4.01;100
75089;BME280;63673;49.928;8.150;2024-03-02T03:44:24;978.25;;;4.02;100
75089;BME280;63673;49.928;8.150;2024-03-02T03:45:26;978.31;;;4.03;100
75089;BME280;63673;49.928;8.150;2024-03-02T03:46:28;978.34;;;4.03;100
75089;BME280;63673;49.928;8.150;2024-03-02T03:47:30;978.33;;;4.03;100
75089;BME280;63673;49.928;8.150;2024-03-02T03:48:31;978.29;;;4.03;100
75089;BME280;63673;49.928;8.150;2024-03-02T03:49:33;978.32;;;4.04;100
75089;BME280;63673;49.928;8.150;2024-03-02T03:50:35;978.31;;;4.04;100
75089;BME280;63673;49.928;8.150;2024-03-02T03:51:36;978.33;;;4.04;100
75089;BME280;63673;49.928;8.150;2024-03-02T03:52:38;978.31;;;4.04;100
75089;BME280;63673;49.928;8.150;2024-03-02T03:53:40;978.3;;;4.04;100
75089;BME280;63673;49.928;8.150;2024-03-02T03:54:42;978.33;;;4.04;100
75089;BME280;63673;49.928;8.150;2024-03-02T03:55:43;978.31;;;4.04;100
75089;BME280;63673;49.928;8.150;2024-03-02T03:56:45;978.3;;;4.05;100
75089;BME280;63673;49.928;8.150;2024-03-02T03:57:47;978.34;;;4.04;100
75089;BME280;63673;49.928;8.150;2024-03-02T03:58:48;978.32;;;4.05;100
75089;BME280;63673;49.928;8.150;2024-03-02T03:59:50;978.36;;;4.05;100
75089;BME280;63673;49.928;8.150;2024-03-02T04:00:52;978.35;;;4.06;100
75089;BME280;63673;49.928;8.150;2024-03-02T04:01:54;978.35;;;4.06;100
75089;BME280;63673;49.928;8.150;2024-03-02T04:02:55;978.38;;;4.07;100
75089;BME280;63673;49.928;8.150;2024-03-02T04:03:57;978.37;;;4.07;100
75089;BME280;63673;49.928;8.150;2024-03-02T04:04:59;978.4;;;4.08;100
75089;BME280;63673;49.928;8.150;2024-03-02T04:06:01;978.42;;;4.08;100
75089;BME280;63673;49.928;8.150;2024-03-02T04:07:02;978.37;;;4.08;100
75089;BME280;63673;49.928;8.150;2024-03-02T04:08:04;978.39;;;4.07;100
75089;BME280;63673;49.928;8.150;2024-03-02T04:09:06;978.4;;;4.06;100
75089;BME280;63673;49.928;8.150;2024-03-02T04:10:08;978.4;;;4.06;100
75089;BME280;63673;49.928;8.150;2024-03-02T04:11:09;978.38;;;4.06;100
75089;BME280;63673;49.928;8.150;2024-03-02T04:12:11;978.36;;;4.05;100
75089;BME280;63673;49.928;8.150;2024-03-02T04:13:13;978.35;;;4.03;100
75089;BME280;63673;49.928;8.150;2024-03-02T04:14:14;978.41;;;4.03;100
75089;BME280;63673;49.928;8.150;2024-03-02T04:15:16;978.37;;;4.02;100
75089;BME280;63673;49.928;8.150;2024-03-02T04:16:18;978.38;;;4;100
75089;BME280;63673;49.928;8.150;2024-03-02T04:17:20;978.31;;;4.01;100
75089;BME280;63673;49.928;8.150;2024-03-02T04:18:21;978.32;;;4.01;100
75089;BME280;63673;49.928;8.150;2024-03-02T04:19:23;978.34;;;4.01;100
75089;BME280;63673;49.928;8.150;2024-03-02T04:20:25;978.28;;;4.01;100
75089;BME280;63673;49.928;8.150;2024-03-02T04:21:27;978.36;;;4;100
75089;BME280;63673;49.928;8.150;2024-03-02T04:22:28;978.34;;;4;100
75089;BME280;63673;49.928;8.150;2024-03-02T04:23:30;978.32;;;3.99;100
75089;BME280;63673;49.928;8.150;2024-03-02T04:24:32;978.27;;;3.99;100
75089;BME280;63673;49.928;8.150;2024-03-02T04:25:34;978.33;;;3.98;100
75089;BME280;63673;49.928;8.150;2024-03-02T04:26:35;978.33;;;3.99;100
75089;BME280;63673;49.928;8.150;2024-03-02T04:27:37;978.33;;;3.99;100
75089;BME280;63673;49.928;8.150;2024-03-02T04:28:39;978.35;;;3.99;100
75089;BME280;63673;49.928;8.150;2024-03-02T04:29:40;978.36;;;3.98;100
75089;BME280;63673;49.928;8.150;2024-03-02T04:30:42;978.36;;;3.97;100
75089;BME280;63673;49.928;8.150;2024-03-02T04:31:44;978.36;;;3.98;100
75089;BME280;63673;49.928;8.150;2024-03-02T04:32:46;978.34;;;3.97;100
75089;BME280;63673;49.928;8.150;2024-03-02T04:33:47;978.39;;;3.97;100
75089;BME280;63673;49.928;8.150;2024-03-02T04:34:49;978.41;;;3.97;100
75089;BME280;63673;49.928;8.150;2024-03-02T04:35:51;978.44;;;3.97;100
75089;BME280;63673;49.928;8.150;2024-03-02T04:36:53;978.49;;;3.97;100
75089;BME280;63673;49.928;8.150;2024-03-02T04:37:54;978.45;;;3.97;100
75089;BME280;63673;49.928;8.150;2024-03-02T04:38:56;978.43;;;3.97;100
75089;BME280;63673;49.928;8.150;2024-03-02T04:39:58;978.45;;;3.95;100
75089;BME280;63673;49.928;8.150;2024-03-02T04:41:00;978.49;;;3.93;100
75089;BME280;63673;49.928;8.150;2024-03-02T04:42:01;978.5;;;3.94;100
75089;BME280;63673;49.928;8.150;2024-03-02T04:43:03;978.47;;;3.94;100
75089;BME280;63673;49.928;8.150;2024-03-02T04:44:05;978.44;;;3.94;100
75089;BME280;63673;49.928;8.150;2024-03-02T04:45:07;978.46;;;3.94;100
75089;BME280;63673;49.928;8.150;2024-03-02T04:46:08;978.45;;;3.93;100
75089;BME280;63673;49.928;8.150;2024-03-02T04:47:10;978.44;;;3.92;100
75089;BME280;63673;49.928;8.150;2024-03-02T04:48:12;978.42;;;3.91;100
75089;BME280;63673;49.928;8.150;2024-03-02T04:49:13;978.51;;;3.89;100
75089;BME280;63673;49.928;8.150;2024-03-02T04:50:15;978.47;;;3.88;100
75089;BME280;63673;49.928;8.150;2024-03-02T04:51:17;978.49;;;3.86;100
75089;BME280;63673;49.928;8.150;2024-03-02T04:52:19;978.51;;;3.84;100
75089;BME280;63673;49.928;8.150;2024-03-02T04:53:20;978.5;;;3.82;100
75089;BME280;63673;49.928;8.150;2024-03-02T04:54:22;978.57;;;3.81;100
75089;BME280;63673;49.928;8.150;2024-03-02T04:55:24;978.56;;;3.78;100
75089;BME280;63673;49.928;8.150;2024-03-02T04:56:25;978.6;;;3.77;100
75089;BME280;63673;49.928;8.150;2024-03-02T04:57:27;978.61;;;3.75;100
75089;BME280;63673;49.928;8.150;2024-03-02T04:58:29;978.56;;;3.73;100
75089;BME280;63673;49.928;8.150;2024-03-02T04:59:31;978.55;;;3.7;100
75089;BME280;63673;49.928;8.150;2024-03-02T05:00:32;978.59;;;3.68;100
75089;BME280;63673;49.928;8.150;2024-03-02T05:01:34;978.64;;;3.66;100
75089;BME280;63673;49.928;8.150;2024-03-02T05:02:36;978.63;;;3.64;100
75089;BME280;63673;49.928;8.150;2024-03-02T05:03:38;978.66;;;3.62;100
75089;BME280;63673;49.928;8.150;2024-03-02T05:04:39;978.66;;;3.6;100
75089;BME280;63673;49.928;8.150;2024-03-02T05:05:41;978.65;;;3.58;100
75089;BME280;63673;49.928;8.150;2024-03-02T05:06:43;978.63;;;3.56;100
75089;BME280;63673;49.928;8.150;2024-03-02T05:07:45;978.67;;;3.54;100
75089;BME280;63673;49.928;8.150;2024-03-02T05:08:46;978.73;;;3.52;100
75089;BME280;63673;49.928;8.150;2024-03-02T05:09:48;978.73;;;3.5;100
75089;BME280;63673;49.928;8.150;2024-03-02T05:10:50;978.73;;;3.49;100
75089;BME280;63673;49.928;8.150;2024-03-02T05:11:51;978.77;;;3.47;100
75089;BME280;63673;49.928;8.150;2024-03-02T05:12:53;978.82;;;3.45;100
75089;BME280;63673;49.928;8.150;2024-03-02T05:13:55;978.75;;;3.44;100
75089;BME280;63673;49.928;8.150;2024-03-02T05:15:02;978.79;;;3.43;100
75089;BME280;63673;49.928;8.150;2024-03-02T05:15:58;978.85;;;3.41;100
75089;BME280;63673;49.928;8.150;2024-03-02T05:17:00;978.87;;;3.4;100
75089;BME280;63673;49.928;8.150;2024-03-02T05:18:02;978.87;;;3.39;100
75089;BME280;63673;49.928;8.150;2024-03-02T05:19:04;978.89;;;3.38;100
75089;BME280;63673;49.928;8.150;2024-03-02T05:20:06;978.86;;;3.37;100
75089;BME280;63673;49.928;8.150;2024-03-02T05:21:07;978.83;;;3.37;100
75089;BME280;63673;49.928;8.150;2024-03-02T05:22:09;978.9;;;3.36;100
75089;BME280;63673;49.928;8.150;2024-03-02T05:23:11;978.78;;;3.36;100
75089;BME280;63673;49.928;8.150;2024-03-02T05:24:12;978.87;;;3.35;100
75089;BME280;63673;49.928;8.150;2024-03-02T05:25:14;978.85;;;3.35;100
75089;BME280;63673;49.928;8.150;2024-03-02T05:26:16;978.88;;;3.35;100
75089;BME280;63673;49.928;8.150;2024-03-02T05:27:17;978.88;;;3.34;100
75089;BME280;63673;49.928;8.150;2024-03-02T05:28:19;978.91;;;3.34;100
75089;BME280;63673;49.928;8.150;2024-03-02T05:29:21;978.94;;;3.35;100
75089;BME280;63673;49.928;8.150;2024-03-02T05:30:23;978.9;;;3.35;100
75089;BME280;63673;49.928;8.150;2024-03-02T05:31:24;978.92;;;3.36;100
75089;BME280;63673;49.928;8.150;2024-03-02T05:32:26;978.95;;;3.36;100
75089;BME280;63673;49.928;8.150;2024-03-02T05:33:28;978.88;;;3.37;100
75089;BME280;63673;49.928;8.150;2024-03-02T05:34:30;978.93;;;3.38;100
75089;BME280;63673;49.928;8.150;2024-03-02T05:35:31;978.88;;;3.39;100
75089;BME280;63673;49.928;8.150;2024-03-02T05:36:33;978.93;;;3.4;100
75089;BME280;63673;49.928;8.150;2024-03-02T05:37:35;978.97;;;3.4;100
75089;BME280;63673;49.928;8.150;2024-03-02T05:38:37;978.99;;;3.41;100
75089;BME280;63673;49.928;8.150;2024-03-02T05:39:38;979.01;;;3.41;100
75089;BME280;63673;49.928;8.150;2024-03-02T05:40:40;979;;;3.42;100
75089;BME280;63673;49.928;8.150;2024-03-02T05:41:42;978.93;;;3.42;100
75089;BME280;63673;49.928;8.150;2024-03-02T05:42:43;978.99;;;3.42;100
75089;BME280;63673;49.928;8.150;2024-03-02T05:43:45;979.04;;;3.41;100
75089;BME280;63673;49.928;8.150;2024-03-02T05:44:47;979.02;;;3.41;100
75089;BME280;63673;49.928;8.150;2024-03-02T05:45:49;978.99;;;3.42;100
75089;BME280;63673;49.928;8.150;2024-03-02T05:46:50;979.01;;;3.42;100
75089;BME280;63673;49.928;8.150;2024-03-02T05:47:52;978.98;;;3.42;100
75089;BME280;63673;49.928;8.150;2024-03-02T05:48:54;978.99;;;3.42;100
75089;BME280;63673;49.928;8.150;2024-03-02T05:49:56;978.94;;;3.43;100
75089;BME280;63673;49.928;8.150;2024-03-02T05:50:57;978.94;;;3.43;100